sensor_id;sensor_type;location;lat;lon;timestamp;pressure;altitude;pressure_sealevel;temperature;humidity
63204;BME280;49297;43.210;27.914;2023-03-21T00:01:55;101313.63;;;9.41;75.15
63204;BME280;49297;43.210;27.914;2023-03-21T00:04:22;101308.44;;;9.39;75.64
63204;BME280;49297;43.210;27.914;2023-03-21T00:06:49;101307.50;;;9.40;75.74
63204;BME280;49297;43.210;27.914;2023-03-21T00:09:15;101295.13;;;9.41;75.88
63204;BME280;49297;43.210;27.914;2023-03-21T00:11:41;101287.91;;;9.43;75.67
63204;BME280;49297;43.210;27.914;2023-03-21T00:14:08;101288.88;;;9.42;75.06
63204;BME280;49297;43.210;27.914;2023-03-21T00:16:39;101277.59;;;9.40;75.34
63204;BME280;49297;43.210;27.914;2023-03-21T00:19:05;101262.69;;;9.39;75.27
63204;BME280;49297;43.210;27.914;2023-03-21T00:21:32;101267.25;;;9.37;75.65
63204;BME280;49297;43.210;27.914;2023-03-21T00:24:03;101262.06;;;9.35;75.54
63204;BME280;49297;43.210;27.914;2023-03-21T00:26:30;101265.31;;;9.39;75.04
63204;BME280;49297;43.210;27.914;2023-03-21T00:28:56;101261.72;;;9.40;75.63
63204;BME280;49297;43.210;27.914;2023-03-21T00:31:22;101260.88;;;9.39;75.56
63204;BME280;49297;43.210;27.914;2023-03-21T00:33:48;101268.69;;;9.41;75.29
63204;BME280;49297;43.210;27.914;2023-03-21T00:36:14;101254.53;;;9.42;75.30
63204;BME280;49297;43.210;27.914;2023-03-21T00:38:40;101255.34;;;9.42;75.20
63204;BME280;49297;43.210;27.914;2023-03-21T00:41:08;101255.34;;;9.42;74.69
63204;BME280;49297;43.210;27.914;2023-03-21T00:43:34;101255.34;;;9.42;75.20
63204;BME280;49297;43.210;27.914;2023-03-21T00:46:00;101243.22;;;9.40;75.67
63204;BME280;49297;43.210;27.914;2023-03-21T00:48:26;101249.56;;;9.37;75.44
63204;BME280;49297;43.210;27.914;2023-03-21T00:50:54;101252.94;;;9.39;75.69
63204;BME280;49297;43.210;27.914;2023-03-21T00:53:20;101244.19;;;9.39;75.59
63204;BME280;49297;43.210;27.914;2023-03-21T00:55:46;101246.31;;;9.33;75.47
63204;BME280;49297;43.210;27.914;2023-03-21T00:58:12;101250.06;;;9.31;74.99
63204;BME280;49297;43.210;27.914;2023-03-21T01:00:38;101253.66;;;9.30;75.61
63204;BME280;49297;43.210;27.914;2023-03-21T01:03:06;101247.31;;;9.32;75.19
63204;BME280;49297;43.210;27.914;2023-03-21T01:05:37;101250.66;;;9.34;75.37
63204;BME280;49297;43.210;27.914;2023-03-21T01:08:22;101247.91;;;9.36;75.57
63204;BME280;49297;43.210;27.914;2023-03-21T01:10:48;101253.09;;;9.38;75.15
63204;BME280;49297;43.210;27.914;2023-03-21T01:13:16;101245.25;;;9.36;75.43
63204;BME280;49297;43.210;27.914;2023-03-21T01:15:53;101238.16;;;9.37;75.49
63204;BME280;49297;43.210;27.914;2023-03-21T01:18:23;101243.56;;;9.35;75.09
63204;BME280;49297;43.210;27.914;2023-03-21T01:20:51;101242.97;;;9.31;75.65
63204;BME280;49297;43.210;27.914;2023-03-21T01:23:18;101231.56;;;9.31;75.54
63204;BME280;49297;43.210;27.914;2023-03-21T01:25:46;101229.88;;;9.30;75.02
63204;BME280;49297;43.210;27.914;2023-03-21T01:28:12;101230.84;;;9.29;75.33
63204;BME280;49297;43.210;27.914;2023-03-21T01:30:38;101223.97;;;9.26;75.73
63204;BME280;49297;43.210;27.914;2023-03-21T01:33:04;101225.56;;;9.29;75.32
63204;BME280;49297;43.210;27.914;2023-03-21T01:35:31;101231.56;;;9.31;75.78
63204;BME280;49297;43.210;27.914;2023-03-21T01:37:57;101230.59;;;9.32;76.11
63204;BME280;49297;43.210;27.914;2023-03-21T01:40:25;101224.25;;;9.34;75.96
63204;BME280;49297;43.210;27.914;2023-03-21T01:42:51;101232.06;;;9.36;75.59
63204;BME280;49297;43.210;27.914;2023-03-21T01:48:21;101223.97;;;9.26;75.19
63204;BME280;49297;43.210;27.914;2023-03-21T01:50:48;101214.38;;;9.25;75.35
63204;BME280;49297;43.210;27.914;2023-03-21T01:53:15;101217.97;;;9.24;75.92
63204;BME280;49297;43.210;27.914;2023-03-21T01:55:41;101216.16;;;9.25;75.47
63204;BME280;49297;43.210;27.914;2023-03-21T01:58:09;101209.22;;;9.24;75.61
63204;BME280;49297;43.210;27.914;2023-03-21T02:00:37;101202.00;;;9.26;75.79
63204;BME280;49297;43.210;27.914;2023-03-21T02:03:06;101212.69;;;9.24;75.66
63204;BME280;49297;43.210;27.914;2023-03-21T02:08:17;101200.31;;;9.25;75.67
63204;BME280;49297;43.210;27.914;2023-03-21T02:10:44;101201.16;;;9.25;75.58
63204;BME280;49297;43.210;27.914;2023-03-21T02:13:12;101207.28;;;9.26;75.60
63204;BME280;49297;43.210;27.914;2023-03-21T02:15:41;101211.75;;;9.25;76.17
63204;BME280;49297;43.210;27.914;2023-03-21T02:18:16;101205.69;;;9.23;76.52
63204;BME280;49297;43.210;27.914;2023-03-21T02:25:56;101223.84;;;9.17;75.98
63204;BME280;49297;43.210;27.914;2023-03-21T02:28:39;101228.25;;;9.16;75.54
63204;BME280;49297;43.210;27.914;2023-03-21T02:31:21;101217.69;;;9.16;76.29
63204;BME280;49297;43.210;27.914;2023-03-21T02:33:59;101217.69;;;9.16;76.22
63204;BME280;49297;43.210;27.914;2023-03-21T02:47:25;101216.75;;;9.17;76.21
63204;BME280;49297;43.210;27.914;2023-03-21T02:49:57;101210.63;;;9.17;75.94
63204;BME280;49297;43.210;27.914;2023-03-21T02:52:32;101215.81;;;9.18;76.10
63204;BME280;49297;43.210;27.914;2023-03-21T02:55:00;101210.34;;;9.08;75.84
63204;BME280;49297;43.210;27.914;2023-03-21T02:57:30;101213.00;;;9.08;75.93
63204;BME280;49297;43.210;27.914;2023-03-21T02:59:57;101213.72;;;9.10;76.59
63204;BME280;49297;43.210;27.914;2023-03-21T03:02:25;101213.97;;;9.07;75.91
63204;BME280;49297;43.210;27.914;2023-03-21T03:04:51;101211.44;;;9.06;76.17
63204;BME280;49297;43.210;27.914;2023-03-21T03:18:23;101196.19;;;9.09;76.55
63204;BME280;49297;43.210;27.914;2023-03-21T03:29:05;101190.91;;;9.09;76.55
63204;BME280;49297;43.210;27.914;2023-03-21T03:31:36;101192.47;;;9.12;76.53
63204;BME280;49297;43.210;27.914;2023-03-21T03:34:09;101186.13;;;9.14;76.50
63204;BME280;49297;43.210;27.914;2023-03-21T03:36:40;101187.81;;;9.15;76.33
63204;BME280;49297;43.210;27.914;2023-03-21T03:39:10;101195.63;;;9.17;76.17
63204;BME280;49297;43.210;27.914;2023-03-21T03:41:50;101195.50;;;9.19;76.47
63204;BME280;49297;43.210;27.914;2023-03-21T03:44:18;101188.41;;;9.19;76.57
63204;BME280;49297;43.210;27.914;2023-03-21T03:46:51;101197.41;;;9.17;76.10
63204;BME280;49297;43.210;27.914;2023-03-21T03:49:31;101204.63;;;9.14;75.82
63204;BME280;49297;43.210;27.914;2023-03-21T03:52:25;101206.19;;;9.17;76.85
63204;BME280;49297;43.210;27.914;2023-03-21T03:54:53;101211.34;;;9.19;76.22
63204;BME280;49297;43.210;27.914;2023-03-21T03:57:19;101204.38;;;9.18;76.65
63204;BME280;49297;43.210;27.914;2023-03-21T03:59:46;101202.44;;;9.20;76.50
63204;BME280;49297;43.210;27.914;2023-03-21T04:02:13;101194.28;;;9.23;75.71
63204;BME280;49297;43.210;27.914;2023-03-21T04:04:39;101193.91;;;9.16;76.77
63204;BME280;49297;43.210;27.914;2023-03-21T04:07:06;101208.94;;;9.15;76.71
63204;BME280;49297;43.210;27.914;2023-03-21T04:09:32;101203.53;;;9.17;76.25
63204;BME280;49297;43.210;27.914;2023-03-21T04:11:58;101190.44;;;9.15;76.59
63204;BME280;49297;43.210;27.914;2023-03-21T04:14:24;101196.56;;;9.16;76.75
63204;BME280;49297;43.210;27.914;2023-03-21T04:16:50;101198.25;;;9.17;76.80
63204;BME280;49297;43.210;27.914;2023-03-21T04:19:17;101194.41;;;9.10;76.29
63204;BME280;49297;43.210;27.914;2023-03-21T04:21:44;101191.16;;;9.06;76.86
63204;BME280;49297;43.210;27.914;2023-03-21T04:24:13;101188.50;;;9.06;76.50
63204;BME280;49297;43.210;27.914;2023-03-21T04:26:40;101177.81;;;9.08;76.60
63204;BME280;49297;43.210;27.914;2023-03-21T04:29:06;101186.59;;;9.08;76.59
63204;BME280;49297;43.210;27.914;2023-03-21T04:31:32;101190.06;;;9.09;76.29
63204;BME280;49297;43.210;27.914;2023-03-21T04:34:00;101193.44;;;9.11;76.50
63204;BME280;49297;43.210;27.914;2023-03-21T04:36:27;101186.34;;;9.11;76.36
63204;BME280;49297;43.210;27.914;2023-03-21T04:38:56;101197.75;;;9.12;76.77
63204;BME280;49297;43.210;27.914;2023-03-21T04:41:41;101195.13;;;9.12;77.27
63204;BME280;49297;43.210;27.914;2023-03-21T04:44:08;101203.25;;;9.09;76.58
63204;BME280;49297;43.210;27.914;2023-03-21T04:46:34;101203.25;;;9.09;76.78
63204;BME280;49297;43.210;27.914;2023-03-21T04:49:01;101210.97;;;9.12;76.62
63204;BME280;49297;43.210;27.914;2023-03-21T04:51:27;101218.56;;;9.17;77.29
63204;BME280;49297;43.210;27.914;2023-03-21T04:53:53;101218.56;;;9.17;76.52
63204;BME280;49297;43.210;27.914;2023-03-21T04:56:26;101209.44;;;9.21;76.42
63204;BME280;49297;43.210;27.914;2023-03-21T04:59:05;101208.50;;;9.22;76.19
63204;BME280;49297;43.210;27.914;2023-03-21T05:01:31;101206.69;;;9.22;76.84
63204;BME280;49297;43.210;27.914;2023-03-21T05:04:00;101214.72;;;9.21;76.77
63204;BME280;49297;43.210;27.914;2023-03-21T05:06:26;101221.69;;;9.22;76.19
63204;BME280;49297;43.210;27.914;2023-03-21T05:08:57;101217.56;;;9.18;76.45
63204;BME280;49297;43.210;27.914;2023-03-21T05:11:30;101209.53;;;9.19;75.92
63204;BME280;49297;43.210;27.914;2023-03-21T05:13:56;101214.00;;;9.19;76.76
63204;BME280;49297;43.210;27.914;2023-03-21T05:16:22;101212.91;;;9.21;76.37
63204;BME280;49297;43.210;27.914;2023-03-21T05:18:58;101204.88;;;9.23;76.57
63204;BME280;49297;43.210;27.914;2023-03-21T05:21:29;101199.69;;;9.21;76.35
63204;BME280;49297;43.210;27.914;2023-03-21T05:23:59;101196.09;;;9.22;76.32
63204;BME280;49297;43.210;27.914;2023-03-21T05:26:28;101195.88;;;9.25;76.37
63204;BME280;49297;43.210;27.914;2023-03-21T05:28:54;101205.69;;;9.23;76.25
63204;BME280;49297;43.210;27.914;2023-03-21T05:31:32;101211.13;;;9.22;76.80
63204;BME280;49297;43.210;27.914;2023-03-21T05:33:58;101202.44;;;9.20;76.42
63204;BME280;49297;43.210;27.914;2023-03-21T05:36:27;101204.16;;;9.21;76.19
63204;BME280;49297;43.210;27.914;2023-03-21T05:38:53;101200.06;;;9.17;76.54
63204;BME280;49297;43.210;27.914;2023-03-21T05:41:19;101199.94;;;9.18;76.98
63204;BME280;49297;43.210;27.914;2023-03-21T05:43:46;101190.22;;;9.19;76.72
63204;BME280;49297;43.210;27.914;2023-03-21T05:46:12;101185.03;;;9.17;76.68
63204;BME280;49297;43.210;27.914;2023-03-21T05:48:38;101195.28;;;9.22;76.73
63204;BME280;49297;43.210;27.914;2023-03-21T05:51:05;101208.34;;;9.23;77.29
63204;BME280;49297;43.210;27.914;2023-03-21T05:53:31;101215.66;;;9.20;76.75
63204;BME280;49297;43.210;27.914;2023-03-21T05:55:56;101217.84;;;9.14;76.85
63204;BME280;49297;43.210;27.914;2023-03-21T05:58:22;101221.09;;;9.18;76.79
63204;BME280;49297;43.210;27.914;2023-03-21T06:00:48;101232.13;;;9.23;77.27
63204;BME280;49297;43.210;27.914;2023-03-21T06:03:14;101235.13;;;9.19;77.05
63204;BME280;49297;43.210;27.914;2023-03-21T06:05:40;101236.56;;;9.23;77.09
63204;BME280;49297;43.210;27.914;2023-03-21T06:08:08;101241.53;;;9.27;77.31
63204;BME280;49297;43.210;27.914;2023-03-21T06:10:33;101248.59;;;9.27;76.86
63204;BME280;49297;43.210;27.914;2023-03-21T06:12:59;101244.06;;;9.29;76.94
63204;BME280;49297;43.210;27.914;2023-03-21T06:15:25;101242.03;;;9.32;77.21
63204;BME280;49297;43.210;27.914;2023-03-21T06:17:51;101239.25;;;9.34;77.39
63204;BME280;49297;43.210;27.914;2023-03-21T06:20:17;101232.88;;;9.37;76.91
63204;BME280;49297;43.210;27.914;2023-03-21T06:22:44;101225.78;;;9.37;77.22
63204;BME280;49297;43.210;27.914;2023-03-21T06:25:10;101224.00;;;9.38;77.10
63204;BME280;49297;43.210;27.914;2023-03-21T06:27:36;101228.53;;;9.36;76.74
63204;BME280;49297;43.210;27.914;2023-03-21T06:30:03;101231.66;;;9.29;77.67
63204;BME280;49297;43.210;27.914;2023-03-21T06:32:30;101230.94;;;9.27;77.59
63204;BME280;49297;43.210;27.914;2023-03-21T06:34:56;101238.66;;;9.30;77.20
63204;BME280;49297;43.210;27.914;2023-03-21T06:37:22;101233.38;;;9.30;77.10
63204;BME280;49297;43.210;27.914;2023-03-21T06:39:48;101234.53;;;9.26;77.35
63204;BME280;49297;43.210;27.914;2023-03-21T06:42:14;101231.66;;;9.29;77.04
63204;BME280;49297;43.210;27.914;2023-03-21T06:44:40;101222.53;;;9.33;77.27
63204;BME280;49297;43.210;27.914;2023-03-21T06:47:06;101222.44;;;9.35;77.43
63204;BME280;49297;43.210;27.914;2023-03-21T06:49:32;101236.13;;;9.40;77.66
63204;BME280;49297;43.210;27.914;2023-03-21T06:51:58;101242.03;;;9.44;77.14
63204;BME280;49297;43.210;27.914;2023-03-21T06:54:23;101241.31;;;9.42;77.41
63204;BME280;49297;43.210;27.914;2023-03-21T06:56:49;101238.44;;;9.45;77.24
63204;BME280;49297;43.210;27.914;2023-03-21T06:59:15;101242.63;;;9.47;77.69
63204;BME280;49297;43.210;27.914;2023-03-21T07:01:46;101239.50;;;9.42;77.40
63204;BME280;49297;43.210;27.914;2023-03-21T07:04:12;101225.69;;;9.39;77.35
63204;BME280;49297;43.210;27.914;2023-03-21T07:06:39;101230.97;;;9.39;77.48
63204;BME280;49297;43.210;27.914;2023-03-21T07:09:05;101229.91;;;9.41;77.40
63204;BME280;49297;43.210;27.914;2023-03-21T07:11:31;101221.16;;;9.52;77.25
63204;BME280;49297;43.210;27.914;2023-03-21T07:13:57;101215.50;;;9.57;77.83
63204;BME280;49297;43.210;27.914;2023-03-21T07:16:23;101209.84;;;9.61;77.60
63204;BME280;49297;43.210;27.914;2023-03-21T07:18:50;101223.56;;;9.66;76.90
63204;BME280;49297;43.210;27.914;2023-03-21T07:21:16;101218.16;;;9.68;77.15
63204;BME280;49297;43.210;27.914;2023-03-21T07:23:42;101221.03;;;9.65;76.57
63204;BME280;49297;43.210;27.914;2023-03-21T07:26:08;101226.28;;;9.53;76.83
63204;BME280;49297;43.210;27.914;2023-03-21T07:28:34;101247.31;;;9.44;76.67
63204;BME280;49297;43.210;27.914;2023-03-21T07:31:03;101250.91;;;9.43;76.94
63204;BME280;49297;43.210;27.914;2023-03-21T07:33:30;101255.25;;;9.44;77.40
63204;BME280;49297;43.210;27.914;2023-03-21T07:35:57;101254.66;;;9.51;77.42
63204;BME280;49297;43.210;27.914;2023-03-21T07:38:24;101232.06;;;9.59;77.91
63204;BME280;49297;43.210;27.914;2023-03-21T07:40:51;101213.56;;;9.59;77.19
63204;BME280;49297;43.210;27.914;2023-03-21T07:43:18;101209.47;;;9.66;77.79
63204;BME280;49297;43.210;27.914;2023-03-21T07:45:44;101222.00;;;9.75;77.83
63204;BME280;49297;43.210;27.914;2023-03-21T07:48:11;101206.59;;;9.80;77.76
63204;BME280;49297;43.210;27.914;2023-03-21T07:50:40;101200.97;;;9.85;77.55
63204;BME280;49297;43.210;27.914;2023-03-21T07:53:07;101214.44;;;9.93;77.60
63204;BME280;49297;43.210;27.914;2023-03-21T07:55:33;101220.56;;;9.94;77.29
63204;BME280;49297;43.210;27.914;2023-03-21T07:58:03;101215.50;;;9.90;77.85
63204;BME280;49297;43.210;27.914;2023-03-21T08:00:29;101205.16;;;9.87;77.37
63204;BME280;49297;43.210;27.914;2023-03-21T08:02:56;101205.53;;;9.83;77.30
63204;BME280;49297;43.210;27.914;2023-03-21T08:05:23;101205.66;;;9.81;77.19
63204;BME280;49297;43.210;27.914;2023-03-21T08:07:50;101195.31;;;9.78;77.41
63204;BME280;49297;43.210;27.914;2023-03-21T08:10:17;101192.91;;;9.75;77.32
63204;BME280;49297;43.210;27.914;2023-03-21T08:12:43;101200.97;;;9.74;77.68
63204;BME280;49297;43.210;27.914;2023-03-21T08:15:10;101194.09;;;9.71;77.49
63204;BME280;49297;43.210;27.914;2023-03-21T08:17:37;101189.53;;;9.73;77.89
63204;BME280;49297;43.210;27.914;2023-03-21T08:20:09;101199.03;;;9.76;77.62
63204;BME280;49297;43.210;27.914;2023-03-21T08:22:37;101199.75;;;9.78;77.59
63204;BME280;49297;43.210;27.914;2023-03-21T08:25:04;101197.00;;;9.79;78.02
63204;BME280;49297;43.210;27.914;2023-03-21T08:27:31;101200.13;;;9.84;77.70
63204;BME280;49297;43.210;27.914;2023-03-21T08:29:58;101206.72;;;9.90;77.88
63204;BME280;49297;43.210;27.914;2023-03-21T08:32:25;101208.75;;;9.98;78.41
63204;BME280;49297;43.210;27.914;2023-03-21T08:34:57;101197.81;;;10.02;77.84
63204;BME280;49297;43.210;27.914;2023-03-21T08:37:23;101195.41;;;9.99;77.83
63204;BME280;49297;43.210;27.914;2023-03-21T08:39:49;101199.25;;;9.84;77.93
63204;BME280;49297;43.210;27.914;2023-03-21T08:42:16;101212.47;;;9.84;78.30
63204;BME280;49297;43.210;27.914;2023-03-21T08:44:42;101202.06;;;9.82;78.23
63204;BME280;49297;43.210;27.914;2023-03-21T08:47:08;101204.91;;;9.90;78.21
63204;BME280;49297;43.210;27.914;2023-03-21T08:49:34;101199.28;;;9.95;78.36
63204;BME280;49297;43.210;27.914;2023-03-21T08:52:00;101205.16;;;9.99;77.83
63204;BME280;49297;43.210;27.914;2023-03-21T08:54:26;101204.94;;;10.02;78.46
63204;BME280;49297;43.210;27.914;2023-03-21T08:56:52;101210.66;;;10.07;78.20
63204;BME280;49297;43.210;27.914;2023-03-21T08:59:18;101217.41;;;10.11;77.96
63204;BME280;49297;43.210;27.914;2023-03-21T09:01:44;101218.13;;;10.13;77.82
63204;BME280;49297;43.210;27.914;2023-03-21T09:04:10;101209.09;;;10.16;78.37
63204;BME280;49297;43.210;27.914;2023-03-21T09:06:39;101212.59;;;10.16;77.57
63204;BME280;49297;43.210;27.914;2023-03-21T09:09:05;101211.03;;;10.14;77.96
63204;BME280;49297;43.210;27.914;2023-03-21T09:11:34;101201.66;;;10.09;77.75
63204;BME280;49297;43.210;27.914;2023-03-21T09:14:00;101197.31;;;10.08;77.70
63204;BME280;49297;43.210;27.914;2023-03-21T09:16:26;101199.13;;;10.08;77.84
63204;BME280;49297;43.210;27.914;2023-03-21T09:18:52;101215.13;;;10.06;77.46
63204;BME280;49297;43.210;27.914;2023-03-21T09:21:22;101197.59;;;10.05;77.85
63204;BME280;49297;43.210;27.914;2023-03-21T09:23:49;101190.47;;;10.06;77.52
63204;BME280;49297;43.210;27.914;2023-03-21T09:26:18;101193.97;;;10.06;77.11
63204;BME280;49297;43.210;27.914;2023-03-21T09:28:44;101209.00;;;10.06;77.52
63204;BME280;49297;43.210;27.914;2023-03-21T09:31:14;101206.72;;;10.01;76.96
63204;BME280;49297;43.210;27.914;2023-03-21T09:33:42;101207.56;;;10.02;77.49
63204;BME280;49297;43.210;27.914;2023-03-21T09:36:09;101212.13;;;10.00;77.17
63204;BME280;49297;43.210;27.914;2023-03-21T09:38:44;101215.03;;;9.97;76.94
63204;BME280;49297;43.210;27.914;2023-03-21T09:47:04;101216.47;;;9.89;77.59
63204;BME280;49297;43.210;27.914;2023-03-21T09:49:34;101217.44;;;9.88;77.39
63204;BME280;49297;43.210;27.914;2023-03-21T09:52:10;101209.72;;;9.85;77.00
63204;BME280;49297;43.210;27.914;2023-03-21T09:54:40;101211.53;;;9.85;77.76
63204;BME280;49297;43.210;27.914;2023-03-21T09:57:38;101216.59;;;9.88;77.39
63204;BME280;49297;43.210;27.914;2023-03-21T10:00:16;101213.56;;;9.93;77.24
63204;BME280;49297;43.210;27.914;2023-03-21T10:02:49;101222.38;;;9.93;77.63
63204;BME280;49297;43.210;27.914;2023-03-21T10:05:23;101222.84;;;9.98;77.72
63204;BME280;49297;43.210;27.914;2023-03-21T10:10:52;101220.66;;;10.03;77.14
63204;BME280;49297;43.210;27.914;2023-03-21T10:14:24;101224.50;;;10.10;77.57
63204;BME280;49297;43.210;27.914;2023-03-21T10:17:00;101223.19;;;10.16;76.77
63204;BME280;49297;43.210;27.914;2023-03-21T10:19:27;101218.72;;;10.17;77.56
63204;BME280;49297;43.210;27.914;2023-03-21T10:21:54;101225.69;;;10.18;76.56
63204;BME280;49297;43.210;27.914;2023-03-21T10:24:23;101217.03;;;10.16;76.84
63204;BME280;49297;43.210;27.914;2023-03-21T10:26:51;101221.97;;;10.20;76.86
63204;BME280;49297;43.210;27.914;2023-03-21T10:29:21;101221.34;;;10.28;76.71
63204;BME280;49297;43.210;27.914;2023-03-21T10:31:49;101219.19;;;10.33;76.80
63204;BME280;49297;43.210;27.914;2023-03-21T10:34:19;101220.19;;;10.32;76.68
63204;BME280;49297;43.210;27.914;2023-03-21T10:36:48;101227.16;;;10.33;76.29
63204;BME280;49297;43.210;27.914;2023-03-21T10:39:27;101223.53;;;10.34;77.01
63204;BME280;49297;43.210;27.914;2023-03-21T10:41:56;101224.50;;;10.33;76.17
63204;BME280;49297;43.210;27.914;2023-03-21T10:44:31;101225.81;;;10.27;76.21
63204;BME280;49297;43.210;27.914;2023-03-21T10:47:03;101228.44;;;10.27;76.30
63204;BME280;49297;43.210;27.914;2023-03-21T10:49:30;101218.50;;;10.31;76.67
63204;BME280;49297;43.210;27.914;2023-03-21T10:51:58;101211.97;;;10.35;76.71
63204;BME280;49297;43.210;27.914;2023-03-21T10:54:31;101213.44;;;10.39;76.66
63204;BME280;49297;43.210;27.914;2023-03-21T10:57:22;101204.03;;;10.35;76.58
63204;BME280;49297;43.210;27.914;2023-03-21T10:59:51;101198.38;;;10.28;76.21
63204;BME280;49297;43.210;27.914;2023-03-21T11:02:29;101204.91;;;10.36;76.58
63204;BME280;49297;43.210;27.914;2023-03-21T11:04:55;101207.88;;;10.42;76.16
63204;BME280;49297;43.210;27.914;2023-03-21T11:07:27;101212.69;;;10.48;76.62
63204;BME280;49297;43.210;27.914;2023-03-21T11:10:00;101210.81;;;10.60;76.49
63204;BME280;49297;43.210;27.914;2023-03-21T11:12:34;101211.56;;;10.62;76.02
63204;BME280;49297;43.210;27.914;2023-03-21T11:15:25;101206.25;;;10.62;75.77
63204;BME280;49297;43.210;27.914;2023-03-21T11:17:52;101208.63;;;10.65;75.88
63204;BME280;49297;43.210;27.914;2023-03-21T11:20:19;101209.63;;;10.64;75.37
63204;BME280;49297;43.210;27.914;2023-03-21T11:22:47;101204.81;;;10.58;75.33
63204;BME280;49297;43.210;27.914;2023-03-21T11:27:53;101200.28;;;10.49;75.82
63204;BME280;49297;43.210;27.914;2023-03-21T11:30:24;101198.56;;;10.59;75.81
63204;BME280;49297;43.210;27.914;2023-03-21T11:32:54;101196.25;;;10.66;75.26
63204;BME280;49297;43.210;27.914;2023-03-21T11:35:23;101203.56;;;10.74;75.47
63204;BME280;49297;43.210;27.914;2023-03-21T11:37:52;101192.38;;;10.70;75.46
63204;BME280;49297;43.210;27.914;2023-03-21T11:40:32;101196.84;;;10.70;75.23
63204;BME280;49297;43.210;27.914;2023-03-21T11:43:05;101189.97;;;10.67;75.13
63204;BME280;49297;43.210;27.914;2023-03-21T11:46:15;101190.44;;;10.72;74.97
63204;BME280;49297;43.210;27.914;2023-03-21T11:48:41;101198.59;;;10.80;75.39
63204;BME280;49297;43.210;27.914;2023-03-21T11:59:12;101185.22;;;10.82;74.48
63204;BME280;49297;43.210;27.914;2023-03-21T12:01:54;101182.75;;;10.69;74.92
63204;BME280;49297;43.210;27.914;2023-03-21T12:04:39;101184.69;;;10.67;74.69
63204;BME280;49297;43.210;27.914;2023-03-21T12:15:29;101178.16;;;10.50;75.20
63204;BME280;49297;43.210;27.914;2023-03-21T12:26:35;101163.25;;;10.38;75.54
63204;BME280;49297;43.210;27.914;2023-03-21T12:29:12;101155.78;;;10.43;75.54
63204;BME280;49297;43.210;27.914;2023-03-21T12:36:59;101150.88;;;10.27;75.82
63204;BME280;49297;43.210;27.914;2023-03-21T12:39:31;101149.88;;;10.28;76.07
63204;BME280;49297;43.210;27.914;2023-03-21T12:44:34;101143.88;;;10.26;75.79
63204;BME280;49297;43.210;27.914;2023-03-21T12:47:06;101136.06;;;10.24;75.79
63204;BME280;49297;43.210;27.914;2023-03-21T12:52:15;101139.38;;;10.05;75.95
63204;BME280;49297;43.210;27.914;2023-03-21T12:54:49;101139.75;;;10.01;76.45
63204;BME280;49297;43.210;27.914;2023-03-21T12:57:25;101134.69;;;9.98;76.25
63204;BME280;49297;43.210;27.914;2023-03-21T13:00:15;101127.94;;;10.05;76.80
63204;BME280;49297;43.210;27.914;2023-03-21T13:03:03;101121.81;;;10.04;76.43
63204;BME280;49297;43.210;27.914;2023-03-21T13:05:39;101131.44;;;10.05;76.78
63204;BME280;49297;43.210;27.914;2023-03-21T13:08:23;101121.59;;;9.96;77.03
63204;BME280;49297;43.210;27.914;2023-03-21T13:10:51;101128.44;;;9.87;76.77
63204;BME280;49297;43.210;27.914;2023-03-21T13:16:50;101122.13;;;9.79;77.21
63204;BME280;49297;43.210;27.914;2023-03-21T13:24:40;101107.56;;;9.84;77.38
63204;BME280;49297;43.210;27.914;2023-03-21T13:29:46;101107.28;;;9.87;77.70
63204;BME280;49297;43.210;27.914;2023-03-21T13:32:27;101116.22;;;9.86;77.91
63204;BME280;49297;43.210;27.914;2023-03-21T13:37:39;101113.00;;;9.71;77.55
63204;BME280;49297;43.210;27.914;2023-03-21T13:40:22;101118.53;;;9.68;77.35
63204;BME280;49297;43.210;27.914;2023-03-21T13:42:52;101111.44;;;9.69;77.99
63204;BME280;49297;43.210;27.914;2023-03-21T13:45:29;101111.66;;;9.66;77.75
63204;BME280;49297;43.210;27.914;2023-03-21T13:47:58;101102.66;;;9.68;77.93
63204;BME280;49297;43.210;27.914;2023-03-21T13:55:41;101104.31;;;9.69;78.11
63204;BME280;49297;43.210;27.914;2023-03-21T14:04:13;101107.47;;;9.63;77.95
63204;BME280;49297;43.210;27.914;2023-03-21T14:06:57;101100.25;;;9.65;78.28
63204;BME280;49297;43.210;27.914;2023-03-21T14:09:40;101100.00;;;9.68;78.45
63204;BME280;49297;43.210;27.914;2023-03-21T14:12:22;101098.78;;;9.72;78.55
63204;BME280;49297;43.210;27.914;2023-03-21T14:15:17;101097.38;;;9.68;78.59
63204;BME280;49297;43.210;27.914;2023-03-21T14:17:55;101099.88;;;9.59;78.24
63204;BME280;49297;43.210;27.914;2023-03-21T14:20:25;101100.50;;;9.51;77.96
63204;BME280;49297;43.210;27.914;2023-03-21T14:22:51;101106.03;;;9.48;78.22
63204;BME280;49297;43.210;27.914;2023-03-21T14:25:19;101100.63;;;9.49;78.66
63204;BME280;49297;43.210;27.914;2023-03-21T14:27:54;101105.78;;;9.51;78.19
63204;BME280;49297;43.210;27.914;2023-03-21T14:30:24;101101.34;;;9.51;77.96
63204;BME280;49297;43.210;27.914;2023-03-21T14:32:59;101096.31;;;9.48;78.01
63204;BME280;49297;43.210;27.914;2023-03-21T14:35:29;101093.66;;;9.37;78.15
63204;BME280;49297;43.210;27.914;2023-03-21T14:37:59;101094.63;;;9.36;78.14
63204;BME280;49297;43.210;27.914;2023-03-21T14:40:27;101090.53;;;9.32;77.72
63204;BME280;49297;43.210;27.914;2023-03-21T14:42:53;101089.47;;;9.34;78.78
63204;BME280;49297;43.210;27.914;2023-03-21T14:45:25;101093.44;;;9.29;78.57
63204;BME280;49297;43.210;27.914;2023-03-21T14:48:09;101098.97;;;9.26;78.91
63204;BME280;49297;43.210;27.914;2023-03-21T14:56:21;101087.91;;;9.21;78.13
63204;BME280;49297;43.210;27.914;2023-03-21T14:58:48;101090.44;;;9.22;78.31
63204;BME280;49297;43.210;27.914;2023-03-21T15:01:21;101086.69;;;9.25;78.75